sensor_id;sensor_type;location;lat;lon;timestamp;P1;durP1;ratioP1;P2;durP2;ratioP2
20056;SDS011;10189;49.546;7.906;2023-02-18T00:00:21;17.50;;;14.65;;
20056;SDS011;10189;49.546;7.906;2023-02-18T00:02:48;17.10;;;15.25;;
20056;SDS011;10189;49.546;7.906;2023-02-18T00:05:14;18.20;;;15.40;;
20056;SDS011;10189;49.546;7.906;2023-02-18T00:07:40;17.90;;;15.73;;
20056;SDS011;10189;49.546;7.906;2023-02-18T00:10:08;18.38;;;15.23;;
20056;SDS011;10189;49.546;7.906;2023-02-18T00:12:40;23.35;;;18.90;;
20056;SDS011;10189;49.546;7.906;2023-02-18T00:15:06;22.23;;;17.58;;
20056;SDS011;10189;49.546;7.906;2023-02-18T00:17:33;22.90;;;18.95;;
20056;SDS011;10189;49.546;7.906;2023-02-18T00:19:59;19.80;;;17.05;;
20056;SDS011;10189;49.546;7.906;2023-02-18T00:22:25;20.63;;;16.45;;
20056;SDS011;10189;49.546;7.906;2023-02-18T00:24:51;21.05;;;16.67;;
20056;SDS011;10189;49.546;7.906;2023-02-18T00:27:17;20.67;;;16.25;;
20056;SDS011;10189;49.546;7.906;2023-02-18T00:29:43;18.30;;;16.27;;
20056;SDS011;10189;49.546;7.906;2023-02-18T00:32:09;20.05;;;17.48;;
20056;SDS011;10189;49.546;7.906;2023-02-18T00:34:35;19.83;;;16.90;;
20056;SDS011;10189;49.546;7.906;2023-02-18T00:37:02;21.15;;;17.85;;
20056;SDS011;10189;49.546;7.906;2023-02-18T00:39:28;20.67;;;16.85;;
20056;SDS011;10189;49.546;7.906;2023-02-18T00:41:55;19.05;;;15.95;;
20056;SDS011;10189;49.546;7.906;2023-02-18T00:44:21;19.88;;;15.75;;
20056;SDS011;10189;49.546;7.906;2023-02-18T00:46:48;19.35;;;15.77;;
20056;SDS011;10189;49.546;7.906;2023-02-18T00:49:14;18.92;;;15.20;;
20056;SDS011;10189;49.546;7.906;2023-02-18T00:51:41;18.45;;;15.52;;
20056;SDS011;10189;49.546;7.906;2023-02-18T00:54:07;19.52;;;15.52;;
20056;SDS011;10189;49.546;7.906;2023-02-18T00:56:33;19.95;;;14.98;;
20056;SDS011;10189;49.546;7.906;2023-02-18T00:59:00;19.80;;;16.15;;
20056;SDS011;10189;49.546;7.906;2023-02-18T01:01:26;18.30;;;14.13;;
20056;SDS011;10189;49.546;7.906;2023-02-18T01:03:52;21.05;;;16.38;;
20056;SDS011;10189;49.546;7.906;2023-02-18T01:06:18;16.50;;;13.82;;
20056;SDS011;10189;49.546;7.906;2023-02-18T01:08:46;16.02;;;13.48;;
20056;SDS011;10189;49.546;7.906;2023-02-18T01:11:13;15.23;;;12.65;;
20056;SDS011;10189;49.546;7.906;2023-02-18T01:13:40;14.82;;;13.13;;
20056;SDS011;10189;49.546;7.906;2023-02-18T01:16:06;17.50;;;13.50;;
20056;SDS011;10189;49.546;7.906;2023-02-18T01:18:34;16.52;;;12.73;;
20056;SDS011;10189;49.546;7.906;2023-02-18T01:21:03;13.35;;;11.95;;
20056;SDS011;10189;49.546;7.906;2023-02-18T01:23:34;17.27;;;12.95;;
20056;SDS011;10189;49.546;7.906;2023-02-18T01:26:05;15.02;;;13.40;;
20056;SDS011;10189;49.546;7.906;2023-02-18T01:28:32;14.95;;;12.77;;
20056;SDS011;10189;49.546;7.906;2023-02-18T01:31:02;14.70;;;12.50;;
20056;SDS011;10189;49.546;7.906;2023-02-18T01:33:33;16.25;;;12.52;;
20056;SDS011;10189;49.546;7.906;2023-02-18T01:36:00;17.95;;;13.45;;
20056;SDS011;10189;49.546;7.906;2023-02-18T01:38:27;17.85;;;13.07;;
20056;SDS011;10189;49.546;7.906;2023-02-18T01:40:54;16.42;;;13.20;;
20056;SDS011;10189;49.546;7.906;2023-02-18T01:43:20;20.98;;;15.52;;
20056;SDS011;10189;49.546;7.906;2023-02-18T01:45:57;18.13;;;15.07;;
20056;SDS011;10189;49.546;7.906;2023-02-18T01:53:36;18.92;;;14.77;;
20056;SDS011;10189;49.546;7.906;2023-02-18T01:56:28;18.67;;;15.32;;
20056;SDS011;10189;49.546;7.906;2023-02-18T01:59:26;16.55;;;14.27;;
20056;SDS011;10189;49.546;7.906;2023-02-18T02:02:01;17.67;;;15.05;;
20056;SDS011;10189;49.546;7.906;2023-02-18T02:04:28;17.73;;;15.65;;
20056;SDS011;10189;49.546;7.906;2023-02-18T02:06:54;18.05;;;14.80;;
20056;SDS011;10189;49.546;7.906;2023-02-18T02:09:21;18.92;;;15.50;;
20056;SDS011;10189;49.546;7.906;2023-02-18T02:26:59;20.27;;;15.25;;
20056;SDS011;10189;49.546;7.906;2023-02-18T02:35:51;21.63;;;17.00;;
20056;SDS011;10189;49.546;7.906;2023-02-18T02:38:39;21.13;;;17.20;;
20056;SDS011;10189;49.546;7.906;2023-02-18T02:47:07;19.88;;;15.02;;
20056;SDS011;10189;49.546;7.906;2023-02-18T02:49:51;17.58;;;14.90;;
20056;SDS011;10189;49.546;7.906;2023-02-18T02:52:59;16.67;;;13.55;;
20056;SDS011;10189;49.546;7.906;2023-02-18T02:55:37;19.63;;;14.82;;
20056;SDS011;10189;49.546;7.906;2023-02-18T02:58:03;19.88;;;14.15;;
20056;SDS011;10189;49.546;7.906;2023-02-18T03:00:36;18.33;;;14.25;;
20056;SDS011;10189;49.546;7.906;2023-02-18T03:03:53;18.02;;;14.00;;
20056;SDS011;10189;49.546;7.906;2023-02-18T03:18:06;16.20;;;12.55;;
20056;SDS011;10189;49.546;7.906;2023-02-18T03:20:50;15.20;;;13.15;;
20056;SDS011;10189;49.546;7.906;2023-02-18T03:23:26;17.30;;;12.90;;
20056;SDS011;10189;49.546;7.906;2023-02-18T03:25:59;16.58;;;12.93;;
20056;SDS011;10189;49.546;7.906;2023-02-18T03:28:29;14.88;;;12.93;;
20056;SDS011;10189;49.546;7.906;2023-02-18T03:31:07;16.10;;;13.55;;
20056;SDS011;10189;49.546;7.906;2023-02-18T03:33:43;17.40;;;14.00;;
20056;SDS011;10189;49.546;7.906;2023-02-18T03:36:17;17.98;;;14.63;;
20056;SDS011;10189;49.546;7.906;2023-02-18T03:41:21;22.45;;;17.88;;
20056;SDS011;10189;49.546;7.906;2023-02-18T03:43:48;21.08;;;17.38;;
20056;SDS011;10189;49.546;7.906;2023-02-18T03:46:27;19.83;;;16.58;;
20056;SDS011;10189;49.546;7.906;2023-02-18T03:48:57;20.27;;;16.20;;
20056;SDS011;10189;49.546;7.906;2023-02-18T03:51:23;17.73;;;15.85;;
20056;SDS011;10189;49.546;7.906;2023-02-18T03:53:49;16.73;;;14.65;;
20056;SDS011;10189;49.546;7.906;2023-02-18T03:56:15;16.58;;;14.57;;
20056;SDS011;10189;49.546;7.906;2023-02-18T03:58:41;17.15;;;15.23;;
20056;SDS011;10189;49.546;7.906;2023-02-18T04:01:07;17.35;;;14.30;;
20056;SDS011;10189;49.546;7.906;2023-02-18T04:03:33;16.85;;;13.60;;
20056;SDS011;10189;49.546;7.906;2023-02-18T04:05:59;14.90;;;13.23;;
20056;SDS011;10189;49.546;7.906;2023-02-18T04:08:25;14.70;;;12.75;;
20056;SDS011;10189;49.546;7.906;2023-02-18T04:10:51;15.48;;;12.88;;
20056;SDS011;10189;49.546;7.906;2023-02-18T04:13:17;14.50;;;12.85;;
20056;SDS011;10189;49.546;7.906;2023-02-18T04:15:43;16.25;;;12.80;;
20056;SDS011;10189;49.546;7.906;2023-02-18T04:18:10;14.60;;;12.32;;
20056;SDS011;10189;49.546;7.906;2023-02-18T04:20:36;14.13;;;12.15;;
20056;SDS011;10189;49.546;7.906;2023-02-18T04:23:02;15.30;;;12.88;;
20056;SDS011;10189;49.546;7.906;2023-02-18T04:25:29;15.95;;;13.10;;
20056;SDS011;10189;49.546;7.906;2023-02-18T04:27:55;14.63;;;11.88;;
20056;SDS011;10189;49.546;7.906;2023-02-18T04:30:21;18.50;;;14.07;;
20056;SDS011;10189;49.546;7.906;2023-02-18T04:32:47;15.32;;;12.82;;
20056;SDS011;10189;49.546;7.906;2023-02-18T04:35:13;15.30;;;12.73;;
20056;SDS011;10189;49.546;7.906;2023-02-18T04:37:39;17.45;;;13.20;;
20056;SDS011;10189;49.546;7.906;2023-02-18T04:40:05;15.20;;;13.57;;
20056;SDS011;10189;49.546;7.906;2023-02-18T04:42:32;16.20;;;14.27;;
20056;SDS011;10189;49.546;7.906;2023-02-18T04:44:58;17.63;;;15.35;;
20056;SDS011;10189;49.546;7.906;2023-02-18T04:47:24;18.42;;;14.68;;
20056;SDS011;10189;49.546;7.906;2023-02-18T04:49:50;15.82;;;13.25;;
20056;SDS011;10189;49.546;7.906;2023-02-18T04:52:16;14.80;;;13.30;;
20056;SDS011;10189;49.546;7.906;2023-02-18T04:54:42;15.48;;;13.40;;
20056;SDS011;10189;49.546;7.906;2023-02-18T04:57:08;13.38;;;11.98;;
20056;SDS011;10189;49.546;7.906;2023-02-18T04:59:34;16.48;;;12.52;;
20056;SDS011;10189;49.546;7.906;2023-02-18T05:02:00;13.10;;;11.43;;
20056;SDS011;10189;49.546;7.906;2023-02-18T05:04:27;14.13;;;12.18;;
20056;SDS011;10189;49.546;7.906;2023-02-18T05:06:52;12.52;;;11.23;;
20056;SDS011;10189;49.546;7.906;2023-02-18T05:09:18;12.30;;;11.00;;
20056;SDS011;10189;49.546;7.906;2023-02-18T05:11:45;13.88;;;11.57;;
20056;SDS011;10189;49.546;7.906;2023-02-18T05:14:12;16.10;;;11.98;;
20056;SDS011;10189;49.546;7.906;2023-02-18T05:16:39;14.40;;;12.20;;
20056;SDS011;10189;49.546;7.906;2023-02-18T05:19:05;13.43;;;11.95;;
20056;SDS011;10189;49.546;7.906;2023-02-18T05:21:31;14.35;;;11.45;;
20056;SDS011;10189;49.546;7.906;2023-02-18T05:23:58;14.65;;;12.77;;
20056;SDS011;10189;49.546;7.906;2023-02-18T05:26:24;13.82;;;12.32;;
20056;SDS011;10189;49.546;7.906;2023-02-18T05:28:50;14.57;;;12.95;;
20056;SDS011;10189;49.546;7.906;2023-02-18T05:31:15;16.45;;;13.48;;
20056;SDS011;10189;49.546;7.906;2023-02-18T05:33:41;15.32;;;12.85;;
20056;SDS011;10189;49.546;7.906;2023-02-18T05:36:07;14.90;;;12.30;;
20056;SDS011;10189;49.546;7.906;2023-02-18T05:38:33;16.60;;;13.35;;
20056;SDS011;10189;49.546;7.906;2023-02-18T05:40:59;14.38;;;12.88;;
20056;SDS011;10189;49.546;7.906;2023-02-18T05:43:25;14.00;;;12.43;;
20056;SDS011;10189;49.546;7.906;2023-02-18T05:45:51;16.35;;;13.73;;
20056;SDS011;10189;49.546;7.906;2023-02-18T05:48:17;15.27;;;13.20;;
20056;SDS011;10189;49.546;7.906;2023-02-18T05:50:43;16.98;;;13.73;;
20056;SDS011;10189;49.546;7.906;2023-02-18T05:53:09;17.58;;;14.98;;
20056;SDS011;10189;49.546;7.906;2023-02-18T05:55:35;16.73;;;14.63;;
20056;SDS011;10189;49.546;7.906;2023-02-18T05:58:03;18.83;;;14.75;;
20056;SDS011;10189;49.546;7.906;2023-02-18T06:00:30;17.88;;;15.98;;
20056;SDS011;10189;49.546;7.906;2023-02-18T06:02:56;19.52;;;16.13;;
20056;SDS011;10189;49.546;7.906;2023-02-18T06:05:23;19.45;;;16.45;;
20056;SDS011;10189;49.546;7.906;2023-02-18T06:07:49;17.67;;;15.63;;
20056;SDS011;10189;49.546;7.906;2023-02-18T06:10:15;21.15;;;16.48;;
20056;SDS011;10189;49.546;7.906;2023-02-18T06:12:42;18.77;;;15.65;;
20056;SDS011;10189;49.546;7.906;2023-02-18T06:15:09;20.55;;;16.70;;
20056;SDS011;10189;49.546;7.906;2023-02-18T06:17:35;18.45;;;15.98;;
20056;SDS011;10189;49.546;7.906;2023-02-18T06:20:00;22.05;;;17.27;;
20056;SDS011;10189;49.546;7.906;2023-02-18T06:22:26;21.38;;;16.80;;
20056;SDS011;10189;49.546;7.906;2023-02-18T06:24:53;19.23;;;15.93;;
20056;SDS011;10189;49.546;7.906;2023-02-18T06:27:19;19.23;;;15.27;;
20056;SDS011;10189;49.546;7.906;2023-02-18T06:29:45;17.30;;;14.75;;
20056;SDS011;10189;49.546;7.906;2023-02-18T06:32:11;18.05;;;14.35;;
20056;SDS011;10189;49.546;7.906;2023-02-18T06:34:37;18.35;;;14.88;;
20056;SDS011;10189;49.546;7.906;2023-02-18T06:37:03;21.42;;;14.77;;
20056;SDS011;10189;49.546;7.906;2023-02-18T06:39:29;16.67;;;14.07;;
20056;SDS011;10189;49.546;7.906;2023-02-18T06:41:55;17.17;;;13.55;;
20056;SDS011;10189;49.546;7.906;2023-02-18T06:44:20;16.52;;;13.68;;
20056;SDS011;10189;49.546;7.906;2023-02-18T06:46:46;15.98;;;13.48;;
20056;SDS011;10189;49.546;7.906;2023-02-18T06:49:12;18.02;;;14.23;;
20056;SDS011;10189;49.546;7.906;2023-02-18T06:51:38;15.57;;;12.98;;
20056;SDS011;10189;49.546;7.906;2023-02-18T06:54:04;14.95;;;12.55;;
20056;SDS011;10189;49.546;7.906;2023-02-18T06:56:30;16.95;;;13.35;;
20056;SDS011;10189;49.546;7.906;2023-02-18T06:58:56;16.77;;;13.82;;
20056;SDS011;10189;49.546;7.906;2023-02-18T07:01:22;14.50;;;12.75;;
20056;SDS011;10189;49.546;7.906;2023-02-18T07:03:48;17.00;;;13.35;;
20056;SDS011;10189;49.546;7.906;2023-02-18T07:06:14;16.35;;;13.63;;
20056;SDS011;10189;49.546;7.906;2023-02-18T07:08:40;17.05;;;13.35;;
20056;SDS011;10189;49.546;7.906;2023-02-18T07:11:06;16.38;;;13.90;;
20056;SDS011;10189;49.546;7.906;2023-02-18T07:13:31;17.45;;;13.93;;
20056;SDS011;10189;49.546;7.906;2023-02-18T07:15:57;18.98;;;15.70;;
20056;SDS011;10189;49.546;7.906;2023-02-18T07:18:23;19.98;;;15.63;;
20056;SDS011;10189;49.546;7.906;2023-02-18T07:20:50;20.15;;;16.48;;
20056;SDS011;10189;49.546;7.906;2023-02-18T07:23:16;20.15;;;16.13;;
20056;SDS011;10189;49.546;7.906;2023-02-18T07:25:42;19.27;;;15.35;;
20056;SDS011;10189;49.546;7.906;2023-02-18T07:28:08;18.65;;;15.63;;
20056;SDS011;10189;49.546;7.906;2023-02-18T07:30:34;18.80;;;15.77;;
20056;SDS011;10189;49.546;7.906;2023-02-18T07:32:59;19.67;;;15.73;;
20056;SDS011;10189;49.546;7.906;2023-02-18T07:35:25;21.92;;;16.83;;
20056;SDS011;10189;49.546;7.906;2023-02-18T07:37:51;20.30;;;16.08;;
20056;SDS011;10189;49.546;7.906;2023-02-18T07:40:18;19.92;;;15.48;;
20056;SDS011;10189;49.546;7.906;2023-02-18T07:42:46;19.05;;;15.88;;
20056;SDS011;10189;49.546;7.906;2023-02-18T07:45:13;19.42;;;16.65;;
20056;SDS011;10189;49.546;7.906;2023-02-18T07:47:39;19.92;;;16.67;;
20056;SDS011;10189;49.546;7.906;2023-02-18T07:50:07;19.40;;;17.00;;
20056;SDS011;10189;49.546;7.906;2023-02-18T07:52:34;20.75;;;17.75;;
20056;SDS011;10189;49.546;7.906;2023-02-18T07:54:59;20.23;;;16.98;;
20056;SDS011;10189;49.546;7.906;2023-02-18T07:57:25;19.15;;;16.77;;
20056;SDS011;10189;49.546;7.906;2023-02-18T07:59:51;20.13;;;17.75;;
20056;SDS011;10189;49.546;7.906;2023-02-18T08:02:20;20.20;;;16.85;;
20056;SDS011;10189;49.546;7.906;2023-02-18T08:04:48;19.25;;;16.90;;
20056;SDS011;10189;49.546;7.906;2023-02-18T08:07:15;19.48;;;16.52;;
20056;SDS011;10189;49.546;7.906;2023-02-18T08:09:44;18.67;;;16.42;;
20056;SDS011;10189;49.546;7.906;2023-02-18T08:12:10;23.48;;;16.55;;
20056;SDS011;10189;49.546;7.906;2023-02-18T08:14:36;18.85;;;16.85;;
20056;SDS011;10189;49.546;7.906;2023-02-18T08:17:02;18.23;;;16.33;;
20056;SDS011;10189;49.546;7.906;2023-02-18T08:19:28;18.63;;;15.98;;
20056;SDS011;10189;49.546;7.906;2023-02-18T08:21:54;18.30;;;16.30;;
20056;SDS011;10189;49.546;7.906;2023-02-18T08:24:20;19.73;;;17.42;;
20056;SDS011;10189;49.546;7.906;2023-02-18T08:26:45;19.55;;;17.27;;
20056;SDS011;10189;49.546;7.906;2023-02-18T08:29:11;20.00;;;17.48;;
20056;SDS011;10189;49.546;7.906;2023-02-18T08:31:37;20.20;;;17.15;;
20056;SDS011;10189;49.546;7.906;2023-02-18T08:34:03;19.92;;;16.88;;
20056;SDS011;10189;49.546;7.906;2023-02-18T08:36:29;19.58;;;17.15;;
20056;SDS011;10189;49.546;7.906;2023-02-18T08:38:55;18.35;;;16.45;;
20056;SDS011;10189;49.546;7.906;2023-02-18T08:41:22;18.33;;;16.42;;
20056;SDS011;10189;49.546;7.906;2023-02-18T08:43:48;20.45;;;18.25;;
20056;SDS011;10189;49.546;7.906;2023-02-18T08:46:14;19.75;;;17.65;;
20056;SDS011;10189;49.546;7.906;2023-02-18T08:48:42;19.23;;;17.23;;
20056;SDS011;10189;49.546;7.906;2023-02-18T08:51:10;18.85;;;16.85;;
20056;SDS011;10189;49.546;7.906;2023-02-18T08:53:45;19.88;;;17.38;;
20056;SDS011;10189;49.546;7.906;2023-02-18T08:56:12;18.45;;;16.55;;
20056;SDS011;10189;49.546;7.906;2023-02-18T08:58:40;19.08;;;16.45;;
20056;SDS011;10189;49.546;7.906;2023-02-18T09:01:07;17.70;;;15.88;;
20056;SDS011;10189;49.546;7.906;2023-02-18T09:03:36;18.15;;;16.25;;
20056;SDS011;10189;49.546;7.906;2023-02-18T09:06:02;19.33;;;17.02;;
20056;SDS011;10189;49.546;7.906;2023-02-18T09:08:28;20.35;;;18.20;;
20056;SDS011;10189;49.546;7.906;2023-02-18T09:10:55;19.55;;;17.60;;
20056;SDS011;10189;49.546;7.906;2023-02-18T09:13:24;19.70;;;17.60;;
20056;SDS011;10189;49.546;7.906;2023-02-18T09:15:57;19.92;;;17.83;;
20056;SDS011;10189;49.546;7.906;2023-02-18T09:18:27;19.27;;;17.30;;
20056;SDS011;10189;49.546;7.906;2023-02-18T09:20:56;24.05;;;21.63;;
20056;SDS011;10189;49.546;7.906;2023-02-18T09:23:25;21.73;;;19.42;;
20056;SDS011;10189;49.546;7.906;2023-02-18T09:25:53;18.25;;;16.35;;
20056;SDS011;10189;49.546;7.906;2023-02-18T09:28:19;19.38;;;17.27;;
20056;SDS011;10189;49.546;7.906;2023-02-18T09:30:46;17.13;;;15.02;;
20056;SDS011;10189;49.546;7.906;2023-02-18T09:33:12;16.58;;;14.77;;
20056;SDS011;10189;49.546;7.906;2023-02-18T09:35:39;15.65;;;14.05;;
20056;SDS011;10189;49.546;7.906;2023-02-18T09:38:11;16.92;;;13.43;;
20056;SDS011;10189;49.546;7.906;2023-02-18T09:40:45;14.63;;;12.63;;
20056;SDS011;10189;49.546;7.906;2023-02-18T09:43:27;12.70;;;11.30;;
20056;SDS011;10189;49.546;7.906;2023-02-18T09:46:18;12.95;;;11.38;;
20056;SDS011;10189;49.546;7.906;2023-02-18T09:48:51;12.88;;;11.20;;
20056;SDS011;10189;49.546;7.906;2023-02-18T09:51:18;12.95;;;11.38;;
20056;SDS011;10189;49.546;7.906;2023-02-18T09:53:44;11.68;;;10.48;;
20056;SDS011;10189;49.546;7.906;2023-02-18T09:56:44;12.38;;;10.77;;
20056;SDS011;10189;49.546;7.906;2023-02-18T09:59:05;12.88;;;11.00;;
20056;SDS011;10189;49.546;7.906;2023-02-18T10:01:53;11.70;;;10.25;;
20056;SDS011;10189;49.546;7.906;2023-02-18T10:04:24;11.52;;;9.88;;
20056;SDS011;10189;49.546;7.906;2023-02-18T10:06:56;11.63;;;9.88;;
20056;SDS011;10189;49.546;7.906;2023-02-18T10:09:34;11.60;;;10.40;;
20056;SDS011;10189;49.546;7.906;2023-02-18T10:12:18;12.30;;;9.90;;
20056;SDS011;10189;49.546;7.906;2023-02-18T10:14:48;10.30;;;8.52;;
20056;SDS011;10189;49.546;7.906;2023-02-18T10:17:22;9.25;;;8.25;;
20056;SDS011;10189;49.546;7.906;2023-02-18T10:19:53;10.90;;;8.90;;
20056;SDS011;10189;49.546;7.906;2023-02-18T10:22:22;10.27;;;8.88;;
20056;SDS011;10189;49.546;7.906;2023-02-18T10:25:00;10.95;;;7.97;;
20056;SDS011;10189;49.546;7.906;2023-02-18T10:27:30;11.32;;;10.13;;
20056;SDS011;10189;49.546;7.906;2023-02-18T10:30:47;11.13;;;8.23;;
20056;SDS011;10189;49.546;7.906;2023-02-18T10:36:01;10.52;;;8.20;;
20056;SDS011;10189;49.546;7.906;2023-02-18T10:51:25;10.63;;;9.52;;
20056;SDS011;10189;49.546;7.906;2023-02-18T10:53:59;11.18;;;9.07;;
20056;SDS011;10189;49.546;7.906;2023-02-18T10:56:39;7.88;;;6.72;;
20056;SDS011;10189;49.546;7.906;2023-02-18T10:59:23;9.30;;;7.80;;
20056;SDS011;10189;49.546;7.906;2023-02-18T11:02:09;6.85;;;6.20;;
20056;SDS011;10189;49.546;7.906;2023-02-18T11:04:43;6.75;;;6.00;;
20056;SDS011;10189;49.546;7.906;2023-02-18T11:07:25;7.38;;;6.47;;
20056;SDS011;10189;49.546;7.906;2023-02-18T11:09:58;6.60;;;5.88;;
20056;SDS011;10189;49.546;7.906;2023-02-18T11:12:43;6.93;;;6.22;;
20056;SDS011;10189;49.546;7.906;2023-02-18T11:17:49;6.97;;;6.10;;
20056;SDS011;10189;49.546;7.906;2023-02-18T11:25:36;7.68;;;5.60;;
20056;SDS011;10189;49.546;7.906;2023-02-18T11:30:43;6.75;;;5.70;;
20056;SDS011;10189;49.546;7.906;2023-02-18T11:38:52;7.95;;;6.88;;
20056;SDS011;10189;49.546;7.906;2023-02-18T11:41:39;5.90;;;5.30;;
20056;SDS011;10189;49.546;7.906;2023-02-18T11:44:25;6.40;;;5.43;;
20056;SDS011;10189;49.546;7.906;2023-02-18T11:49:44;6.65;;;5.40;;
20056;SDS011;10189;49.546;7.906;2023-02-18T11:52:32;5.95;;;5.35;;
20056;SDS011;10189;49.546;7.906;2023-02-18T11:55:18;6.90;;;6.20;;
20056;SDS011;10189;49.546;7.906;2023-02-18T11:57:55;6.40;;;5.70;;
20056;SDS011;10189;49.546;7.906;2023-02-18T12:00:41;7.32;;;6.00;;
20056;SDS011;10189;49.546;7.906;2023-02-18T12:03:28;7.53;;;6.57;;
20056;SDS011;10189;49.546;7.906;2023-02-18T12:06:29;10.80;;;5.75;;
20056;SDS011;10189;49.546;7.906;2023-02-18T12:09:19;6.55;;;5.70;;
20056;SDS011;10189;49.546;7.906;2023-02-18T12:12:05;7.50;;;6.15;;
20056;SDS011;10189;49.546;7.906;2023-02-18T12:14:40;7.07;;;5.22;;
20056;SDS011;10189;49.546;7.906;2023-02-18T12:22:44;7.88;;;4.07;;
20056;SDS011;10189;49.546;7.906;2023-02-18T12:25:34;5.80;;;5.20;;
20056;SDS011;10189;49.546;7.906;2023-02-18T12:31:43;6.70;;;5.32;;
20056;SDS011;10189;49.546;7.906;2023-02-18T12:34:43;6.32;;;4.80;;
20056;SDS011;10189;49.546;7.906;2023-02-18T12:49:38;6.03;;;5.38;;
20056;SDS011;10189;49.546;7.906;2023-02-18T13:05:10;6.60;;;5.43;;
20056;SDS011;10189;49.546;7.906;2023-02-18T13:14:28;7.47;;;6.70;;
20056;SDS011;10189;49.546;7.906;2023-02-18T13:16:54;8.45;;;7.20;;
20056;SDS011;10189;49.546;7.906;2023-02-18T13:19:28;7.55;;;6.72;;
20056;SDS011;10189;49.546;7.906;2023-02-18T13:22:31;6.30;;;5.70;;
20056;SDS011;10189;49.546;7.906;2023-02-18T13:24:58;7.93;;;5.93;;
20056;SDS011;10189;49.546;7.906;2023-02-18T13:27:30;8.13;;;5.60;;
20056;SDS011;10189;49.546;7.906;2023-02-18T13:35:45;8.75;;;5.28;;
20056;SDS011;10189;49.546;7.906;2023-02-18T13:41:07;6.43;;;5.03;;
20056;SDS011;10189;49.546;7.906;2023-02-18T13:43:33;6.13;;;4.75;;
20056;SDS011;10189;49.546;7.906;2023-02-18T13:46:02;5.63;;;5.07;;
20056;SDS011;10189;49.546;7.906;2023-02-18T13:48:33;7.43;;;5.03;;
20056;SDS011;10189;49.546;7.906;2023-02-18T13:51:08;7.70;;;5.18;;
20056;SDS011;10189;49.546;7.906;2023-02-18T13:53:36;5.40;;;4.18;;
20056;SDS011;10189;49.546;7.906;2023-02-18T13:56:08;7.43;;;4.30;;
20056;SDS011;10189;49.546;7.906;2023-02-18T13:58:49;7.07;;;4.47;;
20056;SDS011;10189;49.546;7.906;2023-02-18T14:01:21;5.85;;;4.28;;
20056;SDS011;10189;49.546;7.906;2023-02-18T14:04:32;6.35;;;4.68;;
20056;SDS011;10189;49.546;7.906;2023-02-18T14:25:54;10.13;;;5.82;;
20056;SDS011;10189;49.546;7.906;2023-02-18T14:28:42;5.13;;;3.88;;
20056;SDS011;10189;49.546;7.906;2023-02-18T14:51:13;6.85;;;5.15;;
20056;SDS011;10189;49.546;7.906;2023-02-18T14:53:42;7.80;;;5.45;;
20056;SDS011;10189;49.546;7.906;2023-02-18T14:56:10;7.68;;;5.05;;
20056;SDS011;10189;49.546;7.906;2023-02-18T14:58:44;8.02;;;5.40;;
20056;SDS011;10189;49.546;7.906;2023-02-18T15:01:20;6.53;;;5.10;;
20056;SDS011;10189;49.546;7.906;2023-02-18T15:03:56;9.82;;;5.30;;
20056;SDS011;10189;49.546;7.906;2023-02-18T15:06:34;8.32;;;5.55;;
20056;SDS011;10189;49.546;7.906;2023-02-18T15:09:11;7.38;;;5.60;;
20056;SDS011;10189;49.546;7.906;2023-02-18T15:11:47;11.00;;;7.22;;
20056;SDS011;10189;49.546;7.906;2023-02-18T15:14:33;8.45;;;6.88;;
20056;SDS011;10189;49.546;7.906;2023-02-18T15:17:04;8.35;;;5.75;;
20056;SDS011;10189;49.546;7.906;2023-02-18T15:19:40;7.13;;;6.28;;
20056;SDS011;10189;49.546;7.906;2023-02-18T15:22:16;8.73;;;6.05;;
20056;SDS011;10189;49.546;7.906;2023-02-18T15:24:46;7.55;;;5.70;;
20056;SDS011;10189;49.546;7.906;2023-02-18T15:27:15;9.07;;;6.10;;
20056;SDS011;10189;49.546;7.906;2023-02-18T15:32:52;64.32;;;35.08;;
20056;SDS011;10189;49.546;7.906;2023-02-18T15:35:22;11.77;;;8.48;;
20056;SDS011;10189;49.546;7.906;2023-02-18T15:37:55;11.93;;;6.68;;
20056;SDS011;10189;49.546;7.906;2023-02-18T15:40:30;9.70;;;7.13;;
20056;SDS011;10189;49.546;7.906;2023-02-18T15:42:59;7.38;;;6.22;;
20056;SDS011;10189;49.546;7.906;2023-02-18T15:45:33;11.77;;;9.70;;
20056;SDS011;10189;49.546;7.906;2023-02-18T15:48:05;11.80;;;10.40;;
20056;SDS011;10189;49.546;7.906;2023-02-18T15:50:32;12.25;;;8.23;;
20056;SDS011;10189;49.546;7.906;2023-02-18T15:53:05;8.97;;;6.53;;
20056;SDS011;10189;49.546;7.906;2023-02-18T15:55:39;9.77;;;7.70;;
20056;SDS011;10189;49.546;7.906;2023-02-18T15:58:31;10.32;;;8.63;;
20056;SDS011;10189;49.546;7.906;2023-02-18T16:00:58;8.10;;;6.88;;
20056;SDS011;10189;49.546;7.906;2023-02-18T16:03:28;15.20;;;7.65;;
20056;SDS011;10189;49.546;7.906;2023-02-18T16:06:17;9.68;;;7.30;;
20056;SDS011;10189;49.546;7.906;2023-02-18T16:08:59;16.75;;;15.00;;
20056;SDS011;10189;49.546;7.906;2023-02-18T16:11:29;10.18;;;8.45;;
20056;SDS011;10189;49.546;7.906;2023-02-18T16:14:03;10.80;;;7.60;;
20056;SDS011;10189;49.546;7.906;2023-02-18T16:16:33;10.13;;;7.28;;
20056;SDS011;10189;49.546;7.906;2023-02-18T16:19:03;10.20;;;7.97;;
20056;SDS011;10189;49.546;7.906;2023-02-18T16:24:25;14.38;;;10.85;;
20056;SDS011;10189;49.546;7.906;2023-02-18T16:26:57;13.77;;;10.77;;
20056;SDS011;10189;49.546;7.906;2023-02-18T16:29:30;10.73;;;8.07;;
20056;SDS011;10189;49.546;7.906;2023-02-18T16:32:01;10.15;;;7.88;;
20056;SDS011;10189;49.546;7.906;2023-02-18T16:34:27;9.70;;;7.93;;
20056;SDS011;10189;49.546;7.906;2023-02-18T16:36:53;13.15;;;8.50;;
20056;SDS011;10189;49.546;7.906;2023-02-18T16:39:38;11.02;;;8.73;;
20056;SDS011;10189;49.546;7.906;2023-02-18T16:42:07;9.05;;;7.93;;
20056;SDS011;10189;49.546;7.906;2023-02-18T16:44:38;17.25;;;15.50;;
20056;SDS011;10189;49.546;7.906;2023-02-18T16:47:05;9.75;;;8.75;;
20056;SDS011;10189;49.546;7.906;2023-02-18T16:49:32;11.73;;;9.05;;
20056;SDS011;10189;49.546;7.906;2023-02-18T16:51:59;58.80;;;42.45;;
20056;SDS011;10189;49.546;7.906;2023-02-18T16:54:32;12.48;;;9.70;;
20056;SDS011;10189;49.546;7.906;2023-02-18T16:56:58;10.77;;;9.68;;
20056;SDS011;10189;49.546;7.906;2023-02-18T16:59:24;11.27;;;10.18;;
20056;SDS011;10189;49.546;7.906;2023-02-18T17:01:50;13.50;;;10.15;;
20056;SDS011;10189;49.546;7.906;2023-02-18T17:04:16;11.82;;;10.63;;
20056;SDS011;10189;49.546;7.906;2023-02-18T17:06:44;14.13;;;10.98;;
20056;SDS011;10189;49.546;7.906;2023-02-18T17:09:14;13.70;;;10.88;;
20056;SDS011;10189;49.546;7.906;2023-02-18T17:11:44;14.48;;;11.20;;
20056;SDS011;10189;49.546;7.906;2023-02-18T17:14:18;14.00;;;11.90;;
20056;SDS011;10189;49.546;7.906;2023-02-18T17:16:46;15.98;;;12.07;;
20056;SDS011;10189;49.546;7.906;2023-02-18T17:19:16;14.18;;;12.05;;
20056;SDS011;10189;49.546;7.906;2023-02-18T17:21:42;13.98;;;12.25;;
20056;SDS011;10189;49.546;7.906;2023-02-18T17:24:11;16.35;;;12.98;;
20056;SDS011;10189;49.546;7.906;2023-02-18T17:26:39;21.55;;;15.98;;
20056;SDS011;10189;49.546;7.906;2023-02-18T17:29:05;15.88;;;13.15;;
20056;SDS011;10189;49.546;7.906;2023-02-18T17:31:50;15.95;;;12.15;;
20056;SDS011;10189;49.546;7.906;2023-02-18T17:34:22;15.85;;;12.00;;
20056;SDS011;10189;49.546;7.906;2023-02-18T17:39:18;17.83;;;12.35;;
20056;SDS011;10189;49.546;7.906;2023-02-18T17:41:45;15.45;;;11.18;;
20056;SDS011;10189;49.546;7.906;2023-02-18T17:44:15;13.55;;;10.82;;
20056;SDS011;10189;49.546;7.906;2023-02-18T17:46:43;13.80;;;10.65;;